createdAt,value
2023-04-10T00:02:26.313Z,102059.78
2023-04-10T00:04:53.806Z,102059.72
2023-04-10T00:07:21.282Z,102052.84
2023-04-10T00:09:48.989Z,102052.78
2023-04-10T00:12:16.555Z,102051.91
2023-04-10T00:14:43.965Z,102046.69
2023-04-10T00:17:11.341Z,102050.25
2023-04-10T00:19:38.766Z,102031.97
2023-04-10T00:22:06.259Z,102035.34
2023-04-10T00:24:33.751Z,102024.97
2023-04-10T00:27:01.734Z,102016.22
2023-04-10T00:29:29.225Z,102007.47
2023-04-10T00:31:56.690Z,102009.22
2023-04-10T00:34:24.104Z,102008.31
2023-04-10T00:36:51.557Z,102005.75
2023-04-10T00:39:18.967Z,102002.34
2023-04-10T00:41:46.340Z,102010.09
2023-04-10T00:44:13.718Z,102006.41
2023-04-10T00:46:41.374Z,102001.22
2023-04-10T00:49:09.535Z,101995.06
2023-04-10T00:51:38.077Z,101998.59
2023-04-10T00:54:06.596Z,101991.59
2023-04-10T00:56:34.526Z,101992.41
2023-04-10T00:59:04.089Z,101996.81
2023-04-10T01:01:32.668Z,101998.53
2023-04-10T01:04:00.642Z,101995.00
2023-04-10T01:06:40.657Z,101993.13
2023-04-10T01:09:11.054Z,101988.06
2023-04-10T01:11:41.189Z,101996.59
2023-04-10T01:14:14.490Z,101981.91
2023-04-10T01:16:53.233Z,101981.78
2023-04-10T01:19:20.725Z,101978.19
2023-04-10T01:21:48.843Z,101972.91
2023-04-10T01:24:22.822Z,101979.00
2023-04-10T01:27:08.697Z,101966.06
2023-04-10T01:29:37.502Z,101960.84
2023-04-10T01:32:09.384Z,101954.59
2023-04-10T01:34:40.009Z,101949.41
2023-04-10T01:37:13.133Z,101951.00
2023-04-10T01:39:42.673Z,101957.03
2023-04-10T01:42:11.546Z,101940.63
2023-04-10T01:44:42.372Z,101946.63
2023-04-10T01:47:09.847Z,101945.69
2023-04-10T01:49:42.638Z,101941.38
2023-04-10T01:52:10.764Z,101944.00
2023-04-10T01:54:38.367Z,101935.38
2023-04-10T01:57:06.450Z,101934.50
2023-04-10T01:59:33.856Z,101930.13
2023-04-10T02:02:02.081Z,101933.50
2023-04-10T02:04:29.709Z,101932.53
2023-04-10T02:07:09.468Z,101931.66
2023-04-10T02:09:41.407Z,101939.50
2023-04-10T02:12:11.422Z,101936.06
2023-04-10T02:14:42.844Z,101935.97
2023-04-10T02:17:11.381Z,101923.13
2023-04-10T02:19:39.715Z,101928.22
2023-04-10T02:22:07.182Z,101928.28
2023-04-10T02:24:34.740Z,101934.38
2023-04-10T02:27:02.656Z,101936.03
2023-04-10T02:29:30.076Z,101923.16
2023-04-10T02:31:57.562Z,101929.97
2023-04-10T02:34:24.945Z,101924.78
2023-04-10T02:36:52.671Z,101922.22
2023-04-10T02:39:20.056Z,101923.91
2023-04-10T02:41:47.445Z,101926.59
2023-04-10T02:44:14.993Z,101926.59
2023-04-10T02:46:42.900Z,101923.25
2023-04-10T02:49:10.520Z,101924.09
2023-04-10T02:51:37.962Z,101924.22
2023-04-10T02:54:05.424Z,101932.16
2023-04-10T02:56:34.698Z,101935.75
2023-04-10T02:59:02.204Z,101928.03
2023-04-10T03:01:29.969Z,101932.50
2023-04-10T03:03:58.205Z,101936.00
2023-04-10T03:06:27.338Z,101924.00
2023-04-10T03:08:54.795Z,101929.22
2023-04-10T03:11:22.261Z,101926.78
2023-04-10T03:13:49.924Z,101927.75
2023-04-10T03:16:18.553Z,101933.75
2023-04-10T03:18:46.663Z,101926.00
2023-04-10T03:21:14.118Z,101912.13
2023-04-10T03:23:41.538Z,101924.16
2023-04-10T03:26:08.943Z,101918.19
2023-04-10T03:28:36.694Z,101919.06
2023-04-10T03:31:04.970Z,101906.09
2023-04-10T03:33:32.530Z,101912.16
2023-04-10T03:36:00.073Z,101903.47
2023-04-10T03:38:27.529Z,101898.31
2023-04-10T03:40:54.948Z,101895.66
2023-04-10T03:43:22.412Z,101903.47
2023-04-10T03:45:49.926Z,101899.88
2023-04-10T03:48:18.354Z,101897.28
2023-04-10T03:50:45.772Z,101891.22
2023-04-10T03:53:13.168Z,101891.22
2023-04-10T03:55:41.114Z,101882.56
2023-04-10T03:58:08.479Z,101882.50
2023-04-10T04:00:35.940Z,101874.63
2023-04-10T04:03:05.177Z,101877.19
2023-04-10T04:05:33.028Z,101871.88
2023-04-10T04:08:00.395Z,101866.66
2023-04-10T04:10:27.863Z,101870.03
2023-04-10T04:12:55.757Z,101874.31
2023-04-10T04:15:23.882Z,101866.47
2023-04-10T04:17:51.937Z,101862.06
2023-04-10T04:20:19.398Z,101875.81
2023-04-10T04:22:46.811Z,101866.22
2023-04-10T04:25:14.245Z,101868.72
2023-04-10T04:27:41.717Z,101857.34
2023-04-10T04:30:09.528Z,101868.56
2023-04-10T04:32:36.945Z,101845.16
2023-04-10T04:35:04.423Z,101853.81
2023-04-10T04:37:31.874Z,101853.69
2023-04-10T04:39:59.306Z,101855.38
2023-04-10T04:42:26.699Z,101857.84
2023-04-10T04:44:54.053Z,101851.72
2023-04-10T04:47:21.507Z,101856.84
2023-04-10T04:49:48.997Z,101849.97
2023-04-10T04:52:16.416Z,101853.38
2023-04-10T04:54:43.748Z,101849.84
2023-04-10T04:57:11.145Z,101844.66
2023-04-10T04:59:38.734Z,101847.13
2023-04-10T05:02:06.349Z,101840.16
2023-04-10T05:04:33.856Z,101838.19
2023-04-10T05:07:01.373Z,101840.81
2023-04-10T05:09:28.806Z,101844.22
2023-04-10T05:11:56.243Z,101842.50
2023-04-10T05:14:23.627Z,101845.25
2023-04-10T05:16:51.065Z,101846.19
2023-04-10T05:19:18.493Z,101847.06
2023-04-10T05:21:46.048Z,101830.44
2023-04-10T05:24:13.424Z,101834.06
2023-04-10T05:26:41.645Z,101841.00
2023-04-10T05:29:09.101Z,101830.69
2023-04-10T05:31:36.504Z,101838.53
2023-04-10T05:34:03.969Z,101834.28
2023-04-10T05:36:31.770Z,101836.00
2023-04-10T05:38:59.264Z,101838.88
2023-04-10T05:41:26.663Z,101832.56
2023-04-10T05:43:54.028Z,101842.31
2023-04-10T05:46:21.429Z,101841.44
2023-04-10T05:48:48.917Z,101838.00
2023-04-10T05:51:16.278Z,101827.72
2023-04-10T05:53:43.706Z,101831.28
2023-04-10T05:56:11.073Z,101836.63
2023-04-10T05:58:38.543Z,101824.44
2023-04-10T06:01:06.181Z,101833.09
2023-04-10T06:03:33.807Z,101828.91
2023-04-10T06:06:02.531Z,101823.66
2023-04-10T06:08:30.048Z,101815.94
2023-04-10T06:10:57.492Z,101817.69
2023-04-10T06:13:25.250Z,101808.22
2023-04-10T06:15:52.861Z,101807.34
2023-04-10T06:18:20.490Z,101803.03
2023-04-10T06:20:47.873Z,101804.88
2023-04-10T06:23:15.912Z,101797.94
2023-04-10T06:25:44.190Z,101796.28
2023-04-10T06:28:11.672Z,101786.00
2023-04-10T06:30:39.208Z,101779.19
2023-04-10T06:33:06.664Z,101778.28
2023-04-10T06:35:34.146Z,101771.44
2023-04-10T06:38:01.593Z,101775.00
2023-04-10T06:40:29.465Z,101782.03
2023-04-10T06:42:56.870Z,101770.84
2023-04-10T06:45:24.335Z,101762.16
2023-04-10T06:47:52.408Z,101750.72
2023-04-10T06:50:20.022Z,101744.06
2023-04-10T06:52:47.892Z,101747.53
2023-04-10T06:55:15.399Z,101737.94
2023-04-10T06:57:43.494Z,101740.63
2023-04-10T07:00:11.126Z,101743.13
2023-04-10T07:02:38.574Z,101737.16
2023-04-10T07:05:06.271Z,101728.59
2023-04-10T07:07:34.134Z,101718.28
2023-04-10T07:10:01.873Z,101719.25
2023-04-10T07:12:29.291Z,101713.13
2023-04-10T07:14:56.709Z,101717.56
2023-04-10T07:17:24.138Z,101715.03
2023-04-10T07:19:51.550Z,101699.50
2023-04-10T07:22:18.978Z,101696.94
2023-04-10T07:24:46.410Z,101696.09
2023-04-10T07:27:13.823Z,101690.06
2023-04-10T07:29:41.258Z,101685.75
2023-04-10T07:32:08.781Z,101684.09
2023-04-10T07:34:36.617Z,101685.88
2023-04-10T07:37:04.006Z,101681.56
2023-04-10T07:39:31.447Z,101678.13
2023-04-10T07:41:58.889Z,101666.84
2023-04-10T07:44:28.609Z,101668.59
2023-04-10T07:46:56.153Z,101661.59
2023-04-10T07:49:24.547Z,101654.66
2023-04-10T07:51:51.980Z,101652.94
2023-04-10T07:54:19.570Z,101648.59
2023-04-10T07:56:46.921Z,101651.16
2023-04-10T07:59:14.385Z,101657.19
2023-04-10T08:01:41.965Z,101649.41
2023-04-10T08:04:09.533Z,101651.13
2023-04-10T08:06:37.040Z,101642.41
2023-04-10T08:09:04.704Z,101644.13
2023-04-10T08:11:37.377Z,101644.06
2023-04-10T08:14:06.966Z,101640.50
2023-04-10T08:16:35.283Z,101641.34
2023-04-10T08:19:03.429Z,101629.97
2023-04-10T08:21:31.901Z,101625.78
2023-04-10T08:24:01.007Z,101628.34
2023-04-10T08:26:28.497Z,101612.66
2023-04-10T08:28:59.769Z,101613.53
2023-04-10T08:31:28.415Z,101616.00
2023-04-10T08:33:56.783Z,101593.44
2023-04-10T08:36:24.548Z,101602.03
2023-04-10T08:38:52.001Z,101596.78
2023-04-10T08:41:19.980Z,101594.19
2023-04-10T08:43:47.774Z,101596.72
2023-04-10T08:46:15.497Z,101601.94
2023-04-10T08:48:54.033Z,101596.81
2023-04-10T08:51:25.986Z,101593.34
2023-04-10T08:53:55.423Z,101594.19
2023-04-10T08:56:23.774Z,101586.31
2023-04-10T08:58:52.285Z,101587.13
2023-04-10T09:01:21.070Z,101585.41
2023-04-10T09:03:49.418Z,101582.75
2023-04-10T09:06:16.950Z,101572.53
2023-04-10T09:08:44.384Z,101570.88
2023-04-10T09:11:13.193Z,101570.75
2023-04-10T09:13:44.879Z,101564.63
2023-04-10T09:16:12.903Z,101564.59
2023-04-10T09:18:49.445Z,101557.69
2023-04-10T09:21:18.281Z,101559.53
2023-04-10T09:23:46.158Z,101555.06
2023-04-10T09:26:29.622Z,101539.31
2023-04-10T09:28:57.905Z,101539.50
2023-04-10T09:31:29.379Z,101534.06
2023-04-10T09:34:08.740Z,101533.97
2023-04-10T09:36:36.828Z,101518.47
2023-04-10T09:39:05.047Z,101520.91
2023-04-10T09:41:32.668Z,101517.44
2023-04-10T09:44:06.853Z,101513.97
2023-04-10T09:46:35.171Z,101520.66
2023-04-10T09:49:05.192Z,101509.13
2023-04-10T09:51:33.986Z,101509.78
2023-04-10T09:54:02.181Z,101506.56
2023-04-10T09:56:34.607Z,101507.97
2023-04-10T09:59:04.672Z,101490.50
2023-04-10T10:01:34.769Z,101482.50
2023-04-10T10:04:03.555Z,101484.38
2023-04-10T10:06:34.748Z,101470.16
2023-04-10T10:09:05.774Z,101475.47
2023-04-10T10:11:36.997Z,101475.34
2023-04-10T10:14:08.675Z,101469.31
2023-04-10T10:16:40.688Z,101458.00
2023-04-10T10:19:17.681Z,101450.13
2023-04-10T10:21:45.413Z,101453.97
2023-04-10T10:24:13.129Z,101443.00
2023-04-10T10:26:41.017Z,101436.22
2023-04-10T10:29:10.812Z,101432.38
2023-04-10T10:31:38.844Z,101436.09
2023-04-10T10:34:09.193Z,101433.16
2023-04-10T10:36:37.299Z,101424.72
2023-04-10T10:39:13.567Z,101424.16
2023-04-10T10:41:44.424Z,101421.53
2023-04-10T10:44:30.493Z,101406.25
2023-04-10T10:47:16.501Z,101406.50
2023-04-10T10:49:53.222Z,101403.16
2023-04-10T10:52:39.535Z,101400.50
2023-04-10T10:55:25.169Z,101384.19
2023-04-10T10:57:52.984Z,101382.63
2023-04-10T11:00:24.223Z,101380.41
2023-04-10T11:03:14.623Z,101364.41
2023-04-10T11:05:55.351Z,101363.69
2023-04-10T11:08:35.212Z,101356.09
2023-04-10T11:11:05.096Z,101352.34
2023-04-10T11:13:32.710Z,101345.91
2023-04-10T11:16:01.963Z,101339.84
2023-04-10T11:18:56.084Z,101336.94
2023-04-10T11:21:30.371Z,101337.47
2023-04-10T11:23:57.766Z,101338.28
2023-04-10T11:26:34.784Z,101333.03
2023-04-10T11:29:05.944Z,101316.31
2023-04-10T11:31:36.519Z,101313.56
2023-04-10T11:34:05.918Z,101309.44
2023-04-10T11:36:39.498Z,101305.31
2023-04-10T11:39:08.851Z,101296.81
2023-04-10T11:41:37.396Z,101295.47
2023-04-10T11:44:05.640Z,101295.97
2023-04-10T11:46:33.096Z,101290.44
2023-04-10T11:49:02.395Z,101290.63
2023-04-10T11:51:31.016Z,101281.28
2023-04-10T11:54:08.454Z,101276.28
2023-04-10T11:56:36.408Z,101274.22
2023-04-10T11:59:07.569Z,101265.50
2023-04-10T12:01:35.384Z,101256.41
2023-04-10T12:04:03.006Z,101255.59
2023-04-10T12:06:31.254Z,101250.44
2023-04-10T12:08:58.681Z,101244.34
2023-04-10T12:11:26.657Z,101250.44
2023-04-10T12:13:54.842Z,101242.47
2023-04-10T12:16:22.724Z,101233.75
2023-04-10T12:18:50.836Z,101234.84
2023-04-10T12:21:18.511Z,101233.81
2023-04-10T12:23:45.893Z,101220.59
2023-04-10T12:26:19.787Z,101212.66
2023-04-10T12:28:57.693Z,101212.63
2023-04-10T12:31:29.350Z,101221.91
2023-04-10T12:33:57.893Z,101195.53
2023-04-10T12:36:29.243Z,101172.13
2023-04-10T12:39:00.373Z,101184.50
2023-04-10T12:41:29.616Z,101165.47
2023-04-10T12:44:13.705Z,101158.56
2023-04-10T12:46:41.881Z,101149.66
2023-04-10T12:49:19.594Z,101158.97
2023-04-10T12:51:48.057Z,101157.81
2023-04-10T12:54:28.822Z,101154.41
2023-04-10T12:56:56.282Z,101158.72
2023-04-10T12:59:24.326Z,101152.19
2023-04-10T13:01:52.209Z,101150.41
2023-04-10T13:04:19.953Z,101158.56
2023-04-10T13:06:48.147Z,101153.66
2023-04-10T13:09:15.912Z,101149.66
2023-04-10T13:11:44.273Z,101150.66
2023-04-10T13:14:12.883Z,101140.63
2023-04-10T13:16:40.365Z,101134.88
2023-04-10T13:19:07.830Z,101129.50
2023-04-10T13:21:35.222Z,101125.41
2023-04-10T13:24:02.633Z,101124.69
2023-04-10T13:26:30.071Z,101117.09
2023-04-10T13:28:57.511Z,101117.09
2023-04-10T13:31:25.075Z,101101.94
2023-04-10T13:33:52.530Z,101112.00
2023-04-10T13:36:20.046Z,101107.84
2023-04-10T13:38:47.450Z,101091.94
2023-04-10T13:41:14.892Z,101089.00
2023-04-10T13:43:42.312Z,101072.56
2023-04-10T13:46:09.794Z,101065.81
2023-04-10T13:48:41.269Z,101055.25
2023-04-10T13:51:09.155Z,101050.03
2023-04-10T13:53:36.720Z,101044.91
2023-04-10T13:56:04.133Z,101042.56
2023-04-10T13:58:34.302Z,101026.94
2023-04-10T14:01:02.296Z,101017.69
2023-04-10T14:03:29.835Z,101031.47
2023-04-10T14:05:57.348Z,101027.06
2023-04-10T14:08:24.778Z,101029.06
2023-04-10T14:10:52.650Z,101032.19
2023-04-10T14:13:20.096Z,101033.03
2023-04-10T14:15:47.731Z,101036.47
2023-04-10T14:18:17.448Z,101041.22
2023-04-10T14:20:44.954Z,101049.00
2023-04-10T14:23:18.170Z,101048.31
2023-04-10T14:25:46.553Z,101050.03
2023-04-10T14:28:17.957Z,101046.66
2023-04-10T14:30:54.442Z,101046.59
2023-04-10T14:33:21.891Z,101033.66
2023-04-10T14:35:49.313Z,101043.41
2023-04-10T14:38:16.836Z,101045.44
2023-04-10T14:40:45.821Z,101045.34
2023-04-10T14:43:13.248Z,101054.22
2023-04-10T14:45:40.886Z,101064.16
2023-04-10T14:48:08.478Z,101066.56
2023-04-10T14:50:35.942Z,101060.66
2023-04-10T14:53:03.319Z,101063.41
2023-04-10T14:55:30.895Z,101060.34
2023-04-10T14:57:58.943Z,101037.03
2023-04-10T15:00:26.763Z,101021.69
2023-04-10T15:02:54.562Z,101008.94
2023-04-10T15:05:23.327Z,101008.69
2023-04-10T15:07:50.781Z,101015.09
2023-04-10T15:10:18.228Z,101002.94
2023-04-10T15:12:45.659Z,100983.69
2023-04-10T15:15:13.045Z,100995.63
2023-04-10T15:17:41.291Z,100985.31
2023-04-10T15:20:09.009Z,101002.81
2023-04-10T15:22:36.672Z,100995.78
2023-04-10T15:25:04.270Z,100995.88
2023-04-10T15:27:31.724Z,100988.81
2023-04-10T15:29:59.319Z,100987.25
2023-04-10T15:32:26.826Z,100990.25
2023-04-10T15:34:54.336Z,100988.66
2023-04-10T15:37:21.712Z,100986.34
2023-04-10T15:39:49.391Z,100992.25
2023-04-10T15:42:16.893Z,100988.78
2023-04-10T15:44:48.907Z,100988.66
2023-04-10T15:47:16.664Z,100991.53
2023-04-10T15:49:44.080Z,100994.84
2023-04-10T15:52:11.465Z,100996.75
2023-04-10T15:54:39.639Z,100993.94
2023-04-10T15:57:07.103Z,101012.22
2023-04-10T15:59:35.895Z,101013.34
2023-04-10T16:02:03.361Z,101009.97
2023-04-10T16:04:31.493Z,100997.91
2023-04-10T16:06:59.159Z,100994.41
2023-04-10T16:09:27.028Z,100990.78
2023-04-10T16:11:55.017Z,100961.69
2023-04-10T16:14:22.760Z,100980.88
2023-04-10T16:16:50.938Z,100992.00
2023-04-10T16:19:18.376Z,100994.53
2023-04-10T16:21:45.816Z,100987.50
2023-04-10T16:24:13.229Z,100987.66
2023-04-10T16:26:40.627Z,100977.97
2023-04-10T16:29:08.001Z,100980.78
2023-04-10T16:31:35.485Z,100980.56
2023-04-10T16:34:02.941Z,100983.56
2023-04-10T16:36:30.317Z,100978.09
2023-04-10T16:38:57.883Z,100985.72
2023-04-10T16:41:25.789Z,100986.03
2023-04-10T16:43:53.284Z,100987.78
2023-04-10T16:46:21.135Z,100983.56
2023-04-10T16:48:48.553Z,100993.88
2023-04-10T16:51:17.573Z,100969.44
2023-04-10T16:53:45.361Z,100967.75
2023-04-10T16:56:12.980Z,100943.44
2023-04-10T16:58:41.948Z,100946.63
2023-04-10T17:01:20.000Z,100945.91
2023-04-10T17:03:48.653Z,100945.94
2023-04-10T17:06:16.570Z,100957.44
2023-04-10T17:08:44.218Z,100947.72
2023-04-10T17:11:12.924Z,100955.47
2023-04-10T17:13:43.385Z,100967.75
2023-04-10T17:16:11.056Z,100932.09
2023-04-10T17:18:38.494Z,100937.47
2023-04-10T17:21:06.076Z,100934.00
2023-04-10T17:23:33.528Z,100925.25
2023-04-10T17:26:01.018Z,100923.50
2023-04-10T17:28:28.411Z,100911.38
2023-04-10T17:30:55.871Z,100906.13
2023-04-10T17:33:23.658Z,100893.00
2023-04-10T17:35:51.965Z,100888.59
2023-04-10T17:38:19.663Z,100875.50
2023-04-10T17:40:47.020Z,100858.31
2023-04-10T17:43:14.438Z,100875.03
2023-04-10T17:45:41.998Z,100884.56
2023-04-10T17:48:09.705Z,100886.00
2023-04-10T17:50:37.249Z,100872.19
2023-04-10T17:53:04.747Z,100853.03
2023-04-10T17:55:32.133Z,100866.09
2023-04-10T17:57:59.656Z,100859.41
2023-04-10T18:00:27.135Z,100867.25
2023-04-10T18:02:59.955Z,100869.59
2023-04-10T18:05:27.953Z,100852.13
2023-04-10T18:07:55.389Z,100856.41
2023-04-10T18:10:23.031Z,100867.22
2023-04-10T18:12:50.903Z,100869.13
2023-04-10T18:15:18.734Z,100845.66
2023-04-10T18:17:46.270Z,100828.13
2023-04-10T18:20:14.732Z,100842.88
2023-04-10T18:22:42.105Z,100858.78
2023-04-10T18:25:09.710Z,100873.41
2023-04-10T18:27:37.212Z,100875.91
2023-04-10T18:30:04.766Z,100873.50
2023-04-10T18:32:32.279Z,100865.69
2023-04-10T18:34:59.966Z,100879.41
2023-04-10T18:37:27.389Z,100857.00
2023-04-10T18:39:56.933Z,100848.00
2023-04-10T18:42:27.672Z,100826.47
2023-04-10T18:44:55.074Z,100856.63
2023-04-10T18:47:22.452Z,100847.25
2023-04-10T18:49:49.863Z,100842.41
2023-04-10T18:52:17.263Z,100834.81
2023-04-10T18:54:45.815Z,100838.09
2023-04-10T18:57:13.985Z,100837.41
2023-04-10T18:59:41.519Z,100840.84
2023-04-10T19:02:09.082Z,100831.44
2023-04-10T19:04:36.762Z,100854.06
2023-04-10T19:07:04.831Z,100845.44
2023-04-10T19:09:32.229Z,100852.38
2023-04-10T19:11:59.623Z,100857.66
2023-04-10T19:14:27.025Z,100866.50
2023-04-10T19:16:54.457Z,100867.66
2023-04-10T19:19:21.857Z,100877.22
2023-04-10T19:21:49.288Z,100852.84
2023-04-10T19:24:16.705Z,100836.91
2023-04-10T19:26:44.121Z,100833.66
2023-04-10T19:29:13.394Z,100804.19
2023-04-10T19:31:41.098Z,100811.16
2023-04-10T19:34:11.190Z,100809.84
2023-04-10T19:36:38.820Z,100806.72
2023-04-10T19:39:06.354Z,100812.22
2023-04-10T19:41:33.724Z,100809.72
2023-04-10T19:44:01.194Z,100814.91
2023-04-10T19:46:28.766Z,100812.25
2023-04-10T19:48:56.311Z,100797.53
2023-04-10T19:51:23.747Z,100799.31
2023-04-10T19:53:51.165Z,100798.47
2023-04-10T19:56:18.552Z,100816.72
2023-04-10T19:58:47.021Z,100821.81
2023-04-10T20:01:14.531Z,100820.28
2023-04-10T20:03:42.122Z,100831.47
2023-04-10T20:06:10.386Z,100836.63
2023-04-10T20:08:37.949Z,100832.47
2023-04-10T20:11:06.572Z,100827.09
2023-04-10T20:13:34.729Z,100824.50
2023-04-10T20:16:02.383Z,100828.88
2023-04-10T20:18:29.827Z,100821.19
2023-04-10T20:20:57.326Z,100822.13
2023-04-10T20:23:24.696Z,100815.94
2023-04-10T20:25:52.170Z,100811.69
2023-04-10T20:28:19.556Z,100809.91
2023-04-10T20:30:46.967Z,100802.94
2023-04-10T20:33:14.419Z,100809.19
2023-04-10T20:35:41.883Z,100800.44
2023-04-10T20:38:09.406Z,100797.78
2023-04-10T20:40:36.862Z,100795.28
2023-04-10T20:43:10.733Z,100806.41
2023-04-10T20:45:38.262Z,100798.78
2023-04-10T20:48:05.823Z,100789.94
2023-04-10T20:50:33.444Z,100789.25
2023-04-10T20:53:00.889Z,100797.00
2023-04-10T20:55:28.227Z,100787.31
2023-04-10T20:57:55.691Z,100773.44
2023-04-10T21:00:23.124Z,100775.16
2023-04-10T21:02:50.617Z,100775.28
2023-04-10T21:05:18.147Z,100766.59
2023-04-10T21:07:46.213Z,100764.69
2023-04-10T21:10:13.618Z,100768.94
2023-04-10T21:12:41.036Z,100770.84
2023-04-10T21:15:08.751Z,100768.09
2023-04-10T21:17:36.199Z,100769.13
2023-04-10T21:20:04.219Z,100768.94
2023-04-10T21:22:31.669Z,100775.13
2023-04-10T21:24:59.148Z,100773.34
2023-04-10T21:27:26.533Z,100760.41
2023-04-10T21:29:53.982Z,100763.13
2023-04-10T21:32:21.506Z,100754.31
2023-04-10T21:34:48.937Z,100756.00
2023-04-10T21:37:16.346Z,100766.34
2023-04-10T21:39:43.738Z,100758.63
2023-04-10T21:42:11.116Z,100754.16
2023-04-10T21:44:38.505Z,100755.06
2023-04-10T21:47:06.575Z,100751.81
2023-04-10T21:49:33.998Z,100752.47
2023-04-10T21:52:01.415Z,100757.78
2023-04-10T21:54:29.443Z,100758.59
2023-04-10T21:56:56.821Z,100766.22
2023-04-10T21:59:24.269Z,100764.50
2023-04-10T22:01:51.783Z,100764.53
2023-04-10T22:04:19.257Z,100774.91
2023-04-10T22:06:46.746Z,100833.06
2023-04-10T22:09:14.200Z,100835.53
2023-04-10T22:11:41.574Z,100822.03
2023-04-10T22:14:17.037Z,100827.44
2023-04-10T22:16:45.637Z,100835.41
2023-04-10T22:19:13.112Z,100826.78
2023-04-10T22:21:40.666Z,100812.09
2023-04-10T22:24:08.154Z,100803.41
2023-04-10T22:26:35.844Z,100789.63
2023-04-10T22:29:04.874Z,100791.44
2023-04-10T22:31:32.321Z,100790.53
2023-04-10T22:33:59.719Z,100794.03
2023-04-10T22:36:32.095Z,100792.25
2023-04-10T22:38:59.970Z,100777.53
2023-04-10T22:41:27.461Z,100780.13
2023-04-10T22:43:54.925Z,100789.66
2023-04-10T22:46:22.373Z,100781.84
2023-04-10T22:48:50.160Z,100779.31
2023-04-10T22:51:18.122Z,100780.19
2023-04-10T22:53:45.467Z,100782.00
2023-04-10T22:56:12.991Z,100785.47
2023-04-10T22:58:40.878Z,100783.78
2023-04-10T23:01:08.930Z,100783.78
2023-04-10T23:03:36.701Z,100780.34
2023-04-10T23:06:04.463Z,100775.25
2023-04-10T23:08:31.936Z,100780.41
2023-04-10T23:10:59.366Z,100787.34
2023-04-10T23:13:26.810Z,100779.53
2023-04-10T23:15:55.437Z,100784.72
2023-04-10T23:18:23.180Z,100790.78
2023-04-10T23:20:50.924Z,100801.19
2023-04-10T23:23:18.318Z,100792.50
2023-04-10T23:25:45.726Z,100796.00
2023-04-10T23:28:13.172Z,100800.31
2023-04-10T23:30:42.085Z,100796.00
2023-04-10T23:33:09.561Z,100802.03
2023-04-10T23:35:37.130Z,100789.06
2023-04-10T23:38:04.593Z,100795.94
2023-04-10T23:40:31.934Z,100801.09
2023-04-10T23:42:59.343Z,100796.72
2023-04-10T23:45:26.741Z,100801.09
2023-04-10T23:47:54.266Z,100800.13
2023-04-10T23:50:21.800Z,100788.03
2023-04-10T23:52:52.627Z,100794.13
2023-04-10T23:55:21.519Z,100799.31
2023-04-10T23:57:48.929Z,100799.31
